Time;durP1;ratioP1;P1;durP2;ratioP2;P2;SDS_P1;SDS_P2;PMS_P1;PMS_P2;Temp;Humidity;BMP_temperature;BMP_pressure;BME280_temperature;BME280_humidity;BME280_pressure;Samples;Min_cycle;Max_cycle;Signal;HPM_P1;HPM_P2
2022/06/23 00:01:33;;;;;;;3.10;1.30;;;;;;;23.60;40.66;101086.84;5074528;28;20384;-60
2022/06/23 00:03:58;;;;;;;3.78;1.40;;;;;;;23.60;40.37;101083.34;5074409;28;20078;-60
2022/06/23 00:06:37;;;;;;;4.28;1.30;;;;;;;23.59;40.60;101073.69;5073920;28;20028;-60
2022/06/23 00:09:29;;;;;;;4.15;1.30;;;;;;;23.58;40.48;101080.84;5074279;28;20029;-60
2022/06/23 00:11:55;;;;;;;5.70;1.42;;;;;;;23.57;40.30;101073.84;5074661;28;20075;-60
2022/06/23 00:14:20;;;;;;;4.05;1.40;;;;;;;23.58;40.43;101072.03;5073776;28;20056;-60
2022/06/23 00:16:45;;;;;;;2.67;1.50;;;;;;;23.57;40.46;101067.69;5074501;28;20090;-60
2022/06/23 00:19:14;;;;;;;3.00;1.40;;;;;;;23.57;40.90;101076.50;5074045;28;20383;-60
2022/06/23 00:21:44;;;;;;;3.88;1.23;;;;;;;23.56;40.68;101074.84;5074505;28;20036;-60
2022/06/23 00:24:20;;;;;;;3.75;1.45;;;;;;;23.55;40.78;101073.19;5074476;28;20020;-60
2022/06/23 00:26:46;;;;;;;2.85;1.23;;;;;;;23.55;40.49;101071.34;5073687;28;20051;-60
2022/06/23 00:29:20;;;;;;;3.30;1.58;;;;;;;23.55;40.53;101068.69;5073707;28;20053;-60
2022/06/23 00:31:52;;;;;;;3.65;1.50;;;;;;;23.55;40.87;101073.19;5074097;28;20058;-60
2022/06/23 00:34:31;;;;;;;4.28;1.70;;;;;;;23.55;40.62;101081.16;5073245;28;20032;-60
2022/06/23 00:37:19;;;;;;;3.25;1.52;;;;;;;23.52;40.60;101076.97;5073874;28;20071;-60
2022/06/23 00:40:00;;;;;;;3.58;1.50;;;;;;;23.53;40.60;101076.00;5074327;28;20103;-60
2022/06/23 00:42:35;;;;;;;3.05;1.40;;;;;;;23.52;41.01;101070.81;5071906;28;20032;-60
2022/06/23 00:45:23;;;;;;;4.25;1.58;;;;;;;23.52;40.87;101076.97;5073557;28;20028;-60
2022/06/23 00:48:03;;;;;;;3.47;1.52;;;;;;;23.51;40.81;101072.66;5071996;28;20048;-60
2022/06/23 00:50:38;;;;;;;6.65;1.60;;;;;;;23.50;40.79;101065.66;5073778;28;20074;-60
2022/06/23 00:53:13;;;;;;;4.15;1.50;;;;;;;23.51;40.92;101061.16;5073652;28;20020;-60
2022/06/23 00:55:41;;;;;;;3.40;1.40;;;;;;;23.51;41.01;101050.53;5072903;28;20032;-60
2022/06/23 00:58:32;;;;;;;7.35;1.70;;;;;;;23.49;40.83;101047.19;5073429;28;20070;-60
2022/06/23 01:01:36;;;;;;;4.25;1.80;;;;;;;23.50;40.74;101051.53;5073244;28;20472;-60
2022/06/23 01:04:19;;;;;;;5.43;1.60;;;;;;;23.49;40.67;101052.50;5068458;28;20038;-60
2022/06/23 01:06:51;;;;;;;3.05;1.48;;;;;;;23.47;40.96;101047.34;5073579;28;20024;-60
2022/06/23 01:09:45;;;;;;;6.25;1.80;;;;;;;23.46;41.12;101045.66;5071043;28;20064;-60
2022/06/23 01:12:28;;;;;;;4.20;1.88;;;;;;;23.47;41.17;101049.19;5073244;28;20372;-59
2022/06/23 01:14:57;;;;;;;3.45;1.67;;;;;;;23.47;40.92;101049.19;5073510;28;20060;-60
2022/06/23 01:17:31;;;;;;;3.30;1.55;;;;;;;23.47;40.92;101059.81;5072456;28;20111;-60
2022/06/23 01:20:23;;;;;;;5.25;1.50;;;;;;;23.46;40.89;101056.31;5072841;28;20020;-60
2022/06/23 01:22:54;;;;;;;4.95;1.88;;;;;;;23.46;41.06;101060.78;5072433;28;20133;-60
2022/06/23 01:25:44;;;;;;;6.18;1.77;;;;;;;23.46;40.88;101055.47;5072864;28;20032;-60
2022/06/23 01:28:09;;;;;;;3.85;1.50;;;;;;;23.45;40.94;101051.13;5072949;28;20052;-60
2022/06/23 01:31:01;;;;;;;4.40;1.70;;;;;;;23.44;41.07;101049.50;5072400;28;20020;-60
2022/06/23 01:33:50;;;;;;;5.65;1.60;;;;;;;23.43;41.23;101046.00;5073112;28;20021;-60
2022/06/23 01:36:23;;;;;;;3.95;1.70;;;;;;;23.41;41.42;101050.63;5072569;28;20128;-59
2022/06/23 01:39:07;;;;;;;3.50;1.60;;;;;;;23.42;40.91;101049.63;5072505;28;20024;-60
2022/06/23 01:41:46;;;;;;;5.17;1.97;;;;;;;23.42;40.98;101054.97;5072903;28;20538;-60
2022/06/23 01:44:26;;;;;;;4.75;2.05;;;;;;;23.42;41.12;101051.47;5071858;28;20311;-60
2022/06/23 01:46:57;;;;;;;3.55;1.70;;;;;;;23.41;41.28;101053.28;5072778;28;20032;-60
2022/06/23 01:49:37;;;;;;;3.80;1.90;;;;;;;23.41;41.55;101055.13;5072922;28;20032;-60
2022/06/23 01:52:18;;;;;;;6.68;2.35;;;;;;;23.39;41.38;101055.25;5071971;28;20029;-60
2022/06/23 01:54:46;;;;;;;4.10;1.85;;;;;;;23.39;41.14;101047.28;5072752;28;20472;-60
2022/06/23 01:57:30;;;;;;;3.97;1.92;;;;;;;23.39;41.23;101052.59;5072153;28;20498;-60
2022/06/23 02:00:16;;;;;;;5.18;1.65;;;;;;;23.39;41.39;101049.94;5072025;28;20051;-60
2022/06/23 02:02:50;;;;;;;5.70;1.90;;;;;;;23.38;41.26;101048.25;5072643;28;20033;-60
2022/06/23 02:05:27;;;;;;;3.80;1.52;;;;;;;23.38;41.26;101039.47;5071568;28;20024;-60
2022/06/23 02:08:11;;;;;;;7.57;1.98;;;;;;;23.37;41.27;101046.63;5072834;28;20032;-60
2022/06/23 02:10:49;;;;;;;4.15;2.20;;;;;;;23.38;41.22;101031.50;5072581;28;20098;-59
2022/06/23 02:13:23;;;;;;;4.00;1.73;;;;;;;23.36;41.43;101040.44;5071355;28;20041;-60
2022/06/23 02:16:15;;;;;;;4.10;2.00;;;;;;;23.35;41.40;101044.09;5072166;28;20024;-60
2022/06/23 02:18:50;;;;;;;4.78;2.20;;;;;;;23.34;41.64;101039.78;5072427;28;20033;-60
2022/06/23 02:21:31;;;;;;;5.93;1.90;;;;;;;23.35;41.67;101037.94;5072165;28;20032;-60
2022/06/23 02:24:18;;;;;;;4.30;1.83;;;;;;;23.34;41.61;101034.47;5072112;28;20016;-59
2022/06/23 02:26:53;;;;;;;4.03;1.98;;;;;;;23.33;41.50;101032.78;5071732;28;20036;-60
2022/06/23 02:29:24;;;;;;;5.45;2.03;;;;;;;23.34;41.77;101030.97;5071902;28;20048;-60
2022/06/23 02:32:01;;;;;;;3.92;1.83;;;;;;;23.31;41.44;101033.94;5072402;28;20067;-60
2022/06/23 02:34:45;;;;;;;3.17;1.88;;;;;;;23.32;41.75;101033.78;5071481;28;20066;-60
2022/06/23 02:37:52;;;;;;;4.85;2.20;;;;;;;23.32;41.71;101032.94;5072044;28;20033;-60
2022/06/23 02:40:27;;;;;;;3.88;1.95;;;;;;;23.31;41.97;101039.25;5071036;28;20407;-59
2022/06/23 02:43:15;;;;;;;4.47;2.03;;;;;;;23.30;41.97;101040.22;5072101;28;20464;-60
2022/06/23 02:46:12;;;;;;;4.85;1.80;;;;;;;23.31;41.89;101033.94;5034459;28;20040;-60
2022/06/23 02:49:02;;;;;;;3.83;1.80;;;;;;;23.29;41.75;101036.75;5071376;28;20055;-60
2022/06/23 02:51:41;;;;;;;4.40;1.70;;;;;;;23.29;41.98;101035.88;5072006;28;20043;-60
2022/06/23 02:54:16;;;;;;;4.93;2.00;;;;;;;23.29;41.88;101027.91;5071179;28;20108;-60
2022/06/23 02:56:53;;;;;;;4.18;2.00;;;;;;;23.29;41.79;101026.13;5071958;28;20480;-60
2022/06/23 02:59:39;;;;;;;4.72;2.00;;;;;;;23.27;42.04;101017.44;5071784;28;20036;-60
2022/06/23 03:02:16;;;;;;;3.85;2.00;;;;;;;23.27;41.93;101020.09;5071174;28;20033;-60
2022/06/23 03:04:52;;;;;;;4.72;2.00;;;;;;;23.26;42.17;101018.44;5072098;28;20021;-60
2022/06/23 03:07:25;;;;;;;4.70;2.20;;;;;;;23.27;42.13;101019.28;5071805;28;20040;-60
2022/06/23 03:10:03;;;;;;;4.78;2.20;;;;;;;23.25;42.04;101014.09;5071167;28;20456;-59
2022/06/23 03:12:54;;;;;;;4.65;2.30;;;;;;;23.25;42.08;101008.78;5071935;28;20032;-60
2022/06/23 03:15:36;;;;;;;4.13;2.10;;;;;;;23.25;42.14;101005.31;5066884;28;20036;-60
2022/06/23 03:18:20;;;;;;;5.65;1.98;;;;;;;23.24;42.07;101004.47;5071859;28;20029;-60
2022/06/23 03:20:46;;;;;;;4.80;2.03;;;;;;;23.23;42.19;101004.63;5071866;28;20094;-59
2022/06/23 03:23:42;;;;;;;4.53;2.13;;;;;;;23.23;42.35;101001.97;5071013;28;20028;-60
2022/06/23 03:26:19;;;;;;;5.28;2.30;;;;;;;23.21;42.23;100995.94;5072373;28;20074;-60
2022/06/23 03:28:54;;;;;;;4.55;2.13;;;;;;;23.22;42.17;101003.78;5075192;28;20527;-60
2022/06/23 03:31:39;;;;;;;4.75;2.05;;;;;;;23.20;42.03;101002.28;5074441;28;20063;-60
2022/06/23 03:34:25;;;;;;;7.90;2.30;;;;;;;23.22;42.29;101022.38;5074943;28;20031;-60
2022/06/23 03:36:57;;;;;;;6.25;2.42;;;;;;;23.21;41.89;101018.06;5074516;28;20032;-60
2022/06/23 03:42:24;;;;;;;4.05;2.00;;;;;;;23.21;42.12;101022.53;5074785;28;20404;-60
2022/06/23 03:44:57;;;;;;;5.53;2.40;;;;;;;23.21;42.45;101017.22;5074492;28;20146;-60
2022/06/23 03:47:29;;;;;;;5.75;2.40;;;;;;;23.20;42.29;101016.41;5075114;28;20506;-60
2022/06/23 03:50:17;;;;;;;5.47;2.47;;;;;;;23.20;42.29;101015.56;5074894;28;20159;-60
2022/06/23 03:52:48;;;;;;;4.45;2.25;;;;;;;23.18;42.42;101016.56;5074837;28;20129;-60
2022/06/23 03:55:21;;;;;;;4.57;2.20;;;;;;;23.18;42.28;101013.88;5074440;28;20017;-60
2022/06/23 03:57:53;;;;;;;3.88;2.38;;;;;;;23.19;42.09;101022.69;5074436;28;20081;-60
2022/06/23 04:00:31;;;;;;;5.55;2.30;;;;;;;23.19;42.15;101017.38;5074332;28;20020;-60
2022/06/23 04:03:18;;;;;;;4.57;2.30;;;;;;;23.18;42.50;101011.22;5074458;28;20041;-60
2022/06/23 04:06:11;;;;;;;4.72;2.58;;;;;;;23.17;42.50;101017.53;5073893;28;20086;-59
2022/06/23 04:08:44;;;;;;;4.72;2.40;;;;;;;23.18;42.24;101024.53;5074513;28;20020;-60
2022/06/23 04:14:03;;;;;;;5.53;2.65;;;;;;;23.17;42.57;101006.88;5074398;28;20075;-60
2022/06/23 04:16:32;;;;;;;4.68;2.22;;;;;;;23.17;42.54;101008.72;5074254;28;20035;-60
2022/06/23 04:18:57;;;;;;;4.90;2.60;;;;;;;23.16;42.67;101005.25;5073117;28;20054;-60
2022/06/23 04:21:26;;;;;;;6.63;2.55;;;;;;;23.16;42.56;100996.41;5074491;28;20048;-60
2022/06/23 04:24:16;;;;;;;5.45;2.45;;;;;;;23.16;42.28;100989.28;5074461;28;20104;-60
2022/06/23 04:26:47;;;;;;;4.78;2.40;;;;;;;23.16;42.77;100994.63;5073217;28;20476;-60
2022/06/23 04:29:26;;;;;;;5.88;2.40;;;;;;;23.15;42.57;101006.22;5073663;28;20041;-60
2022/06/23 04:32:02;;;;;;;5.45;2.30;;;;;;;23.15;42.69;101008.88;5073750;28;20431;-60
2022/06/23 04:34:33;;;;;;;4.13;2.22;;;;;;;23.15;42.63;101011.53;5073425;28;20027;-60
2022/06/23 04:36:59;;;;;;;8.60;2.72;;;;;;;23.15;42.50;101018.69;5073840;28;20115;-60
2022/06/23 04:39:45;;;;;;;6.78;2.45;;;;;;;23.15;42.63;101016.84;5074351;28;20104;-60
2022/06/23 04:42:19;;;;;;;3.97;2.25;;;;;;;23.14;42.56;101017.84;5074176;28;20078;-59
2022/06/23 04:44:47;;;;;;;4.43;2.10;;;;;;;23.14;42.35;101012.50;5073990;28;20056;-59
2022/06/23 04:47:16;;;;;;;4.03;2.13;;;;;;;23.14;42.59;101009.84;5072753;28;20030;-60
2022/06/23 04:49:56;;;;;;;5.00;2.40;;;;;;;23.14;42.45;101012.50;5073804;28;20482;-60
2022/06/23 04:52:35;;;;;;;4.43;2.15;;;;;;;23.14;42.55;101009.84;5073820;28;20036;-60
2022/06/23 04:55:13;;;;;;;4.30;2.20;;;;;;;23.14;42.44;101006.38;5072692;28;20039;-60
2022/06/23 04:57:47;;;;;;;5.35;2.30;;;;;;;23.14;42.51;101007.19;5073537;28;20040;-60
2022/06/23 05:00:23;;;;;;;;;;;;;;;23.14;42.57;101006.38;5073613;28;20025;-60
2022/06/23 05:02:56;;;;;;;5.47;2.30;;;;;;;23.13;42.72;101008.22;5072421;28;20280;-60
2022/06/23 05:05:27;;;;;;;5.55;2.30;;;;;;;23.14;42.65;101009.84;5073618;28;20036;-60
2022/06/23 05:07:59;;;;;;;6.07;2.30;;;;;;;23.14;42.71;101014.34;5072659;28;20032;-60
2022/06/23 05:10:29;;;;;;;5.05;2.20;;;;;;;23.13;42.56;101010.88;5073194;28;20060;-60
2022/06/23 05:12:59;;;;;;;4.43;2.17;;;;;;;23.14;42.62;101009.03;5073125;28;20056;-60
2022/06/23 05:15:30;;;;;;;4.80;2.28;;;;;;;23.14;42.61;101009.03;5072226;28;20234;-60
2022/06/23 05:18:03;;;;;;;5.20;2.53;;;;;;;23.14;42.65;101011.69;5073089;28;20029;-60
2022/06/23 05:21:06;;;;;;;5.13;2.47;;;;;;;23.13;42.55;101008.22;5073373;28;20438;-60
2022/06/23 05:23:59;;;;;;;4.30;2.20;;;;;;;23.14;42.56;101017.84;5058633;28;20040;-59
2022/06/23 05:26:30;;;;;;;5.53;2.47;;;;;;;23.14;42.62;101007.19;5073016;28;20529;-59
2022/06/23 05:29:00;;;;;;;6.80;2.67;;;;;;;23.13;42.82;101002.03;5071699;28;20507;-60
2022/06/23 05:31:36;;;;;;;5.88;2.38;;;;;;;23.14;42.85;101009.84;5072873;28;20054;-60
2022/06/23 05:34:25;;;;;;;5.30;2.28;;;;;;;23.14;43.02;101015.16;5072543;28;20197;-59
2022/06/23 05:36:59;;;;;;;6.07;2.30;;;;;;;23.14;42.81;101020.50;5072316;28;20028;-60
2022/06/23 05:39:31;;;;;;;6.28;2.53;;;;;;;23.14;42.94;101017.00;5073091;28;20062;-59
2022/06/23 05:42:06;;;;;;;5.57;2.28;;;;;;;23.15;42.88;101010.72;5072504;28;20086;-59
2022/06/23 05:44:40;;;;;;;6.30;2.08;;;;;;;23.15;42.87;101008.88;5071939;28;20066;-60
2022/06/23 05:47:10;;;;;;;6.85;2.33;;;;;;;23.15;42.71;101010.72;5072550;28;20479;-59
2022/06/23 05:49:41;;;;;;;6.05;2.20;;;;;;;23.15;42.74;101014.19;5072419;28;20028;-60
2022/06/23 05:52:14;;;;;;;6.28;2.30;;;;;;;23.16;42.43;101015.88;5071685;28;20040;-60
2022/06/23 05:55:01;;;;;;;4.93;2.20;;;;;;;23.17;42.93;101016.69;5072634;28;20051;-59
2022/06/23 05:57:35;;;;;;;4.75;2.10;;;;;;;23.17;42.88;101020.19;5071631;28;20380;-59
2022/06/23 06:00:15;;;;;;;6.38;2.50;;;;;;;23.18;42.61;101024.53;5072434;28;20099;-59
2022/06/23 06:03:07;;;;;;;5.68;2.38;;;;;;;23.18;42.73;101027.19;5072591;28;20024;-59
2022/06/23 06:05:38;;;;;;;7.82;2.45;;;;;;;23.18;42.65;101018.38;5071881;28;20028;-59
2022/06/23 06:08:14;;;;;;;7.00;2.10;;;;;;;23.19;42.66;101009.41;5072091;28;20029;-59
2022/06/23 06:10:39;;;;;;;5.55;2.25;;;;;;;23.18;42.97;101011.22;5072293;28;20534;-59
2022/06/23 06:13:13;;;;;;;5.53;2.13;;;;;;;23.18;42.73;101013.06;5071238;28;20127;-59
2022/06/23 06:15:44;;;;;;;5.55;2.45;;;;;;;23.19;43.06;101006.75;5072312;28;20111;-59
2022/06/23 06:18:48;;;;;;;6.50;2.67;;;;;;;23.18;43.04;101003.25;5071393;28;20029;-59
2022/06/23 06:21:16;;;;;;;6.93;2.08;;;;;;;23.18;42.81;101008.56;4990499;28;20023;-59
2022/06/23 06:23:58;;;;;;;5.60;2.58;;;;;;;23.18;43.07;101008.56;4990876;28;20458;-59
2022/06/23 06:26:30;;;;;;;5.13;2.60;;;;;;;23.19;42.88;101004.09;5038172;28;20060;-59
2022/06/23 06:29:05;;;;;;;5.13;2.40;;;;;;;23.19;43.13;101012.06;5072051;28;20052;-59
2022/06/23 06:31:38;;;;;;;7.15;2.35;;;;;;;23.18;42.91;101018.38;5072262;28;20089;-59
2022/06/23 06:34:12;;;;;;;5.20;2.20;;;;;;;23.18;43.05;101013.88;5071348;28;20062;-59
2022/06/23 06:36:39;;;;;;;;;;;;;;;23.17;42.88;101014.88;5072679;28;20036;-59
2022/06/23 06:39:22;;;;;;;6.15;2.17;;;;;;;23.19;43.05;101014.72;5071343;28;19916;-59
2022/06/23 06:41:52;;;;;;;6.07;2.30;;;;;;;23.18;42.88;101015.72;5072389;28;20035;-58
2022/06/23 06:44:21;;;;;;;6.97;2.38;;;;;;;23.19;42.79;101014.72;5072056;28;20032;-59
2022/06/23 06:46:50;;;;;;;5.90;2.50;;;;;;;23.18;43.05;101005.91;5071487;28;20025;-59
2022/06/23 06:49:21;;;;;;;5.00;2.25;;;;;;;23.21;42.83;101009.25;5072009;28;20528;-58
2022/06/23 06:51:48;;;;;;;4.40;2.30;;;;;;;23.20;42.77;101011.09;5072272;28;20499;-59
2022/06/23 06:54:23;;;;;;;5.03;2.47;;;;;;;23.21;42.84;101006.59;5071158;28;20047;-59
2022/06/23 06:56:54;;;;;;;6.60;2.30;;;;;;;23.21;42.73;101018.06;5072128;28;20032;-59
2022/06/23 06:59:28;;;;;;;5.97;2.33;;;;;;;23.22;42.94;101018.91;5071682;28;20024;-59
2022/06/23 07:02:19;;;;;;;5.72;2.30;;;;;;;23.22;42.92;101019.72;5073597;28;20055;-59
2022/06/23 07:05:01;;;;;;;5.43;2.15;;;;;;;23.23;42.93;101020.59;5075963;28;20072;-58
2022/06/23 07:07:34;;;;;;;3.97;2.20;;;;;;;23.23;42.99;101023.25;5075079;28;20024;-59
2022/06/23 07:10:10;;;;;;;6.25;2.35;;;;;;;23.23;43.08;101023.25;5075460;28;20028;-59
2022/06/23 07:12:58;;;;;;;6.10;2.45;;;;;;;23.24;43.17;101027.56;5075977;28;20166;-59
2022/06/23 07:15:31;;;;;;;7.05;2.30;;;;;;;23.26;43.40;101018.44;5075062;28;20021;-60
2022/06/23 07:18:04;;;;;;;7.07;2.50;;;;;;;23.26;42.82;101018.44;5075080;28;20551;-59
2022/06/23 07:20:58;;;;;;;6.10;2.50;;;;;;;23.27;43.17;101014.78;5075785;28;20101;-60
2022/06/23 07:23:45;;;;;;;5.93;2.42;;;;;;;23.27;42.69;101005.97;5038290;28;20064;-60
2022/06/23 07:26:31;;;;;;;6.35;2.13;;;;;;;23.28;42.90;101010.31;5075213;28;20039;-60
2022/06/23 07:29:07;;;;;;;4.43;2.20;;;;;;;23.28;43.17;101012.97;5074164;28;20036;-60
2022/06/23 07:32:02;;;;;;;8.32;2.30;;;;;;;23.28;43.04;101010.31;5075490;28;20031;-59
2022/06/23 07:34:30;;;;;;;;;;;;;;;23.28;42.84;101008.47;5075827;28;20436;-60
2022/06/23 07:36:58;;;;;;;5.10;2.45;;;;;;;23.27;42.95;100996.16;5074198;28;20007;-60
2022/06/23 07:39:32;;;;;;;5.45;2.33;;;;;;;23.28;43.19;101008.47;5075508;28;20107;-60
2022/06/23 07:42:04;;;;;;;5.68;2.70;;;;;;;23.30;42.82;101008.31;5074925;28;20028;-59
2022/06/23 07:44:40;;;;;;;4.88;2.50;;;;;;;23.30;43.12;101003.00;5074299;28;20464;-59
2022/06/23 07:47:06;;;;;;;5.15;2.10;;;;;;;23.30;42.81;101003.84;5074683;28;20025;-59
2022/06/23 07:49:33;;;;;;;4.50;2.22;;;;;;;23.31;43.26;101008.16;5074268;28;20036;-59
2022/06/23 07:52:01;;;;;;;5.70;2.63;;;;;;;23.31;43.04;101008.16;5074771;28;20024;-59
2022/06/23 07:54:27;;;;;;;6.28;2.67;;;;;;;23.33;43.07;101008.84;5074789;28;20520;-60
2022/06/23 07:56:53;;;;;;;5.88;2.50;;;;;;;23.33;43.24;101008.00;5074059;28;20146;-59
2022/06/23 07:59:24;;;;;;;4.88;2.28;;;;;;;23.34;43.36;101007.88;5074460;28;20099;-59
2022/06/23 08:02:05;;;;;;;6.60;3.30;;;;;;;23.34;43.37;101010.53;5074697;28;20024;-59
2022/06/23 08:04:51;;;;;;;4.80;2.25;;;;;;;23.34;43.19;101010.53;5074062;28;20078;-59
2022/06/23 08:07:17;;;;;;;7.85;2.50;;;;;;;23.35;43.60;101009.53;5074336;28;20029;-59
2022/06/23 08:09:51;;;;;;;6.07;2.20;;;;;;;23.36;43.82;101007.72;5074781;28;20032;-59
2022/06/23 08:18:02;;;;;;;6.15;2.58;;;;;;;23.38;43.60;101002.22;5073310;28;20036;-59
2022/06/23 08:20:33;;;;;;;6.00;2.60;;;;;;;23.38;43.79;100995.09;5074309;28;20028;-59
2022/06/23 08:23:01;;;;;;;5.20;2.65;;;;;;;23.40;43.97;100994.94;5074215;28;20411;-59
2022/06/23 08:25:28;;;;;;;5.32;2.60;;;;;;;23.40;43.99;100992.25;5073880;28;20027;-59
2022/06/23 08:27:55;;;;;;;7.13;2.85;;;;;;;23.41;44.36;100988.63;5074291;28;20400;-58
2022/06/23 08:30:23;;;;;;;6.22;2.55;;;;;;;23.44;44.67;100990.97;5073996;28;20417;-59
2022/06/23 08:32:51;;;;;;;10.40;3.30;;;;;;;23.45;45.05;100993.47;5073529;28;20040;-59
2022/06/23 08:35:25;;;;;;;6.82;3.00;;;;;;;23.47;45.13;100996.81;5073670;28;20029;-59
2022/06/23 08:37:56;;;;;;;8.60;2.72;;;;;;;23.49;45.44;100992.16;5072776;28;20044;-59
2022/06/23 08:40:48;;;;;;;7.90;3.20;;;;;;;23.50;45.64;100993.00;5073229;28;20035;-63
2022/06/23 08:43:40;;;;;;;6.50;2.60;;;;;;;23.51;46.18;100984.88;5070837;28;20078;-59
2022/06/23 08:46:32;;;;;;;11.23;2.60;;;;;;;23.53;45.92;100984.72;5073121;28;20025;-59
2022/06/23 08:49:06;;;;;;;6.15;2.83;;;;;;;23.53;45.84;100990.03;5073654;28;20028;-58
2022/06/23 08:51:39;;;;;;;6.97;3.00;;;;;;;23.52;45.65;100989.19;5074130;28;20052;-58
2022/06/23 08:54:30;;;;;;;5.60;2.55;;;;;;;23.53;45.71;100990.03;5072808;28;20028;-59
2022/06/23 08:57:14;;;;;;;9.10;2.45;;;;;;;23.53;45.68;100988.22;5072866;28;20488;-59
2022/06/23 08:59:51;;;;;;;8.87;2.90;;;;;;;23.54;45.25;100987.22;5073265;28;20052;-59
2022/06/23 09:02:54;;;;;;;6.43;2.42;;;;;;;23.54;45.28;100989.03;5073308;28;20273;-58
2022/06/23 09:05:38;;;;;;;4.97;2.60;;;;;;;23.55;45.24;100985.38;5073458;28;20086;-59
2022/06/23 09:08:06;;;;;;;6.43;2.63;;;;;;;23.55;45.13;100985.38;5072488;28;20539;-59
2022/06/23 09:11:02;;;;;;;7.05;2.92;;;;;;;23.56;45.08;100981.75;5073319;28;20392;-59
2022/06/23 09:13:52;;;;;;;5.78;2.30;;;;;;;23.55;45.37;100978.22;5073594;28;20029;-58
2022/06/23 09:16:52;;;;;;;6.82;2.30;;;;;;;23.57;45.62;100979.91;5073139;28;20074;-58
2022/06/23 09:19:45;;;;;;;7.18;2.63;;;;;;;23.58;45.57;100978.94;5073069;28;20029;-59
2022/06/23 09:22:21;;;;;;;5.95;2.58;;;;;;;23.58;45.82;100970.94;5072338;28;20031;-58
2022/06/23 09:24:56;;;;;;;6.07;2.50;;;;;;;23.59;46.02;100976.13;5072393;28;20434;-58
2022/06/23 09:27:58;;;;;;;11.80;3.40;;;;;;;23.60;45.88;100976.94;5072799;28;20016;-59
2022/06/23 09:30:42;;;;;;;6.60;2.60;;;;;;;23.60;45.96;100971.63;5073075;28;20506;-59
2022/06/23 09:33:17;;;;;;;;;;;;;;;23.60;45.95;100967.13;5073079;28;20072;-58
2022/06/23 09:36:03;;;;;;;6.07;2.75;;;;;;;23.62;46.01;100964.31;5072184;28;19965;-59
2022/06/23 09:38:59;;;;;;;6.63;2.80;;;;;;;23.62;45.94;100964.31;5073063;28;20060;-58
2022/06/23 09:41:49;;;;;;;6.50;2.42;;;;;;;23.62;45.95;100964.31;5072961;28;20039;-58
2022/06/23 09:44:39;;;;;;;7.03;2.60;;;;;;;23.63;46.30;100972.13;5072024;28;20020;-58
2022/06/23 09:47:23;;;;;;;5.35;2.42;;;;;;;23.63;46.26;100963.31;5072466;28;20109;-58
2022/06/23 09:50:12;;;;;;;7.00;2.40;;;;;;;23.62;46.39;100959.00;5072052;28;20037;-58
2022/06/23 09:52:53;;;;;;;4.90;2.38;;;;;;;23.64;46.26;100959.66;5072903;28;20032;-58
2022/06/23 09:55:37;;;;;;;5.32;2.67;;;;;;;23.64;46.11;100963.16;5072262;28;20016;-58
2022/06/23 09:58:23;;;;;;;7.05;2.30;;;;;;;23.65;46.44;100964.00;5071639;28;20395;-58
2022/06/23 10:00:58;;;;;;;7.13;2.30;;;;;;;23.65;46.53;100964.81;5072530;28;20384;-58
2022/06/23 10:03:42;;;;;;;6.85;2.53;;;;;;;23.67;46.42;100964.66;5072038;28;20120;-58
2022/06/23 10:06:17;;;;;;;4.60;2.50;;;;;;;23.66;46.55;100961.19;5072299;28;20029;-58
2022/06/23 10:09:06;;;;;;;4.93;2.42;;;;;;;23.67;46.77;100964.66;5072548;28;20444;-58
2022/06/23 10:11:39;;;;;;;5.40;2.40;;;;;;;23.68;47.20;100961.84;5071958;28;20043;-58
2022/06/23 10:14:21;;;;;;;6.22;2.60;;;;;;;23.68;47.13;100959.19;5072149;28;20032;-57
2022/06/23 10:16:59;;;;;;;7.68;2.90;;;;;;;23.70;47.31;100951.91;5072494;28;20458;-58
2022/06/23 10:19:33;;;;;;;5.25;2.42;;;;;;;23.71;47.83;100939.41;5071722;28;20480;-58
2022/06/23 10:22:15;;;;;;;7.15;2.67;;;;;;;23.71;47.95;100953.53;5072267;28;20032;-59
2022/06/23 10:24:45;;;;;;;6.15;2.40;;;;;;;23.72;47.96;100955.22;5071729;28;20040;-58
2022/06/23 10:27:13;;;;;;;5.68;2.67;;;;;;;23.74;48.21;100963.06;5072180;28;20111;-58
2022/06/23 10:30:12;;;;;;;5.18;2.70;;;;;;;23.74;48.29;100949.75;5072280;28;20037;-58
2022/06/23 10:32:57;;;;;;;7.88;2.97;;;;;;;23.74;48.22;100947.09;5071540;28;20436;-58
2022/06/23 10:35:46;;;;;;;;;;;;;;;23.75;48.05;100947.91;5074040;28;20111;-58
2022/06/23 10:38:42;;;;;;;8.18;2.60;;;;;;;23.76;47.37;100936.28;5075135;28;20328;-57
2022/06/23 10:41:19;;;;;;;6.95;2.50;;;;;;;23.76;47.96;100933.63;5076189;28;20059;-58
2022/06/23 10:43:56;;;;;;;6.18;2.53;;;;;;;23.77;48.02;100933.47;5076166;28;20426;-58
2022/06/23 10:46:32;;;;;;;6.43;2.80;;;;;;;23.77;47.71;100930.81;5075466;28;20024;-58
2022/06/23 10:49:27;;;;;;;5.70;2.90;;;;;;;23.78;48.14;100927.13;5075646;28;20099;-58
2022/06/23 10:52:11;;;;;;;;;;;;;;;23.78;47.94;100927.13;5076248;28;20143;-58
2022/06/23 10:54:48;;;;;;;6.17;2.80;;;;;;;23.79;47.93;100923.47;5075642;28;20007;-59
2022/06/23 10:57:41;;;;;;;5.30;2.50;;;;;;;23.81;47.76;100928.66;5075491;28;20476;-58
2022/06/23 11:00:27;;;;;;;5.47;2.45;;;;;;;23.80;47.87;100913.66;5074660;28;20494;-58
2022/06/23 11:03:16;;;;;;;5.95;2.53;;;;;;;23.81;47.86;100916.16;5075846;28;20392;-59
2022/06/23 11:05:59;;;;;;;6.97;2.50;;;;;;;23.82;47.72;100914.34;5076091;28;20028;-58
2022/06/23 11:08:42;;;;;;;4.93;2.50;;;;;;;23.83;47.69;100913.34;5075213;28;20029;-58
2022/06/23 11:11:22;;;;;;;5.20;2.20;;;;;;;23.83;47.83;100913.34;5075524;28;20075;-58
2022/06/23 11:14:05;;;;;;;6.85;2.80;;;;;;;23.85;47.73;100919.38;5074959;28;20315;-58
2022/06/23 11:16:41;;;;;;;7.17;2.60;;;;;;;23.85;47.73;100919.38;5075788;28;20024;-59
2022/06/23 11:19:25;;;;;;;6.10;2.95;;;;;;;23.86;47.67;100915.72;5075402;28;20074;-58
2022/06/23 11:22:26;;;;;;;8.65;2.83;;;;;;;23.86;48.02;100916.56;5074646;28;20078;-58
2022/06/23 11:25:19;;;;;;;7.28;2.78;;;;;;;23.86;48.24;100905.06;5075495;28;20032;-58
2022/06/23 11:28:07;;;;;;;10.25;2.85;;;;;;;23.87;48.02;100906.75;5074729;28;20044;-58
2022/06/23 11:30:54;;;;;;;6.47;2.50;;;;;;;23.87;48.45;100904.09;5075707;28;20052;-59
2022/06/23 11:33:41;;;;;;;5.38;2.50;;;;;;;23.87;48.06;100910.22;5075332;28;20025;-59
2022/06/23 11:36:06;;;;;;;6.07;2.53;;;;;;;23.89;48.52;100920.72;5074270;28;20513;-59
2022/06/23 11:39:07;;;;;;;5.78;2.60;;;;;;;23.89;48.34;100912.72;5075221;28;20032;-59
2022/06/23 11:41:54;;;;;;;5.45;2.70;;;;;;;23.90;48.50;100919.75;5074722;28;20036;-58
2022/06/23 11:44:32;;;;;;;7.55;2.80;;;;;;;23.90;48.48;100920.56;5074908;28;20149;-58
2022/06/23 11:47:07;;;;;;;5.80;2.22;;;;;;;23.92;48.37;100911.59;5074047;28;20108;-58
2022/06/23 11:49:50;;;;;;;5.53;2.33;;;;;;;23.92;48.19;100898.28;5074558;28;20020;-58
2022/06/23 11:52:41;;;;;;;5.68;2.40;;;;;;;23.92;48.08;100888.47;5074934;28;20085;-58
2022/06/23 11:55:25;;;;;;;5.07;2.70;;;;;;;23.93;48.40;100890.13;5074730;28;20067;-58
2022/06/23 11:58:22;;;;;;;5.80;2.55;;;;;;;23.93;48.48;100892.81;5074348;28;20040;-59
2022/06/23 12:01:11;;;;;;;5.85;2.38;;;;;;;23.95;48.14;100888.13;5075060;28;20028;-58
2022/06/23 12:04:04;;;;;;;6.97;2.75;;;;;;;23.96;48.46;100887.16;5074155;28;20028;-58
2022/06/23 12:06:38;;;;;;;5.57;2.33;;;;;;;23.96;48.46;100892.47;5074825;28;20480;-59
2022/06/23 12:09:14;;;;;;;5.45;2.90;;;;;;;23.96;48.48;100884.50;5074547;28;20036;-58
2022/06/23 12:11:40;;;;;;;9.35;2.60;;;;;;;23.96;48.53;100889.81;5073960;28;20016;-59
2022/06/23 12:14:08;;;;;;;5.40;2.63;;;;;;;23.98;48.78;100894.97;5074237;28;20024;-59
2022/06/23 12:16:41;;;;;;;6.75;2.90;;;;;;;24.00;48.33;100903.63;5074624;28;20052;-59
2022/06/23 12:19:13;;;;;;;5.45;2.47;;;;;;;24.00;48.13;100893.81;5074316;28;20407;-58
2022/06/23 12:21:55;;;;;;;4.60;2.28;;;;;;;24.01;48.38;100886.66;5074735;28;20082;-58
2022/06/23 12:24:32;;;;;;;5.93;2.67;;;;;;;24.01;48.48;100879.50;5074042;28;20039;-59
2022/06/23 12:27:05;;;;;;;6.20;2.80;;;;;;;24.02;48.57;100885.66;5074067;28;20040;-59
2022/06/23 12:29:39;;;;;;;5.97;2.70;;;;;;;24.03;48.30;100882.00;5074256;28;20109;-59
2022/06/23 12:32:16;;;;;;;;;;;;;;;24.03;48.57;100882.00;5073784;28;20025;-59